createdAt,value
2023-02-17T00:01:22.502Z,25.93
2023-02-17T00:03:49.985Z,25.43
2023-02-17T00:06:19.152Z,26.27
2023-02-17T00:08:46.519Z,26.73
2023-02-17T00:11:14.177Z,27.47
2023-02-17T00:13:40.820Z,28.40
2023-02-17T00:16:13.439Z,30.23
2023-02-17T00:18:40.077Z,26.03
2023-02-17T00:21:14.492Z,29.77
2023-02-17T00:23:41.288Z,28.53
2023-02-17T00:26:08.497Z,27.93
2023-02-17T00:28:35.406Z,29.97
2023-02-17T00:31:10.239Z,27.50
2023-02-17T00:33:37.186Z,31.20
2023-02-17T00:36:10.445Z,33.33
2023-02-17T00:38:37.469Z,28.50
2023-02-17T00:41:04.428Z,29.63
2023-02-17T00:43:31.314Z,30.80
2023-02-17T00:45:57.892Z,29.07
2023-02-17T00:48:24.618Z,31.67
2023-02-17T00:50:51.234Z,30.43
2023-02-17T00:53:17.882Z,29.87
2023-02-17T00:55:44.410Z,32.47
2023-02-17T00:58:11.050Z,29.47
2023-02-17T01:00:37.793Z,28.17
2023-02-17T01:03:04.646Z,27.83
2023-02-17T01:05:31.596Z,33.20
2023-02-17T01:07:58.168Z,28.97
2023-02-17T01:10:24.898Z,28.10
2023-02-17T01:12:51.447Z,31.27
2023-02-17T01:15:18.064Z,28.33
2023-02-17T01:17:44.615Z,31.23
2023-02-17T01:20:11.360Z,33.10
2023-02-17T01:22:39.742Z,32.90
2023-02-17T01:25:06.711Z,29.97
2023-02-17T01:27:33.440Z,31.20
2023-02-17T01:30:00.079Z,31.20
2023-02-17T01:32:26.836Z,27.57
2023-02-17T01:34:53.435Z,31.03
2023-02-17T01:37:20.065Z,30.83
2023-02-17T01:39:46.618Z,28.53
2023-02-17T01:42:20.717Z,34.07
2023-02-17T01:45:18.101Z,31.23
2023-02-17T01:47:50.843Z,31.63
2023-02-17T01:50:22.284Z,31.60
2023-02-17T01:52:49.479Z,30.60
2023-02-17T01:55:19.242Z,29.23
2023-02-17T01:57:47.735Z,29.27
2023-02-17T02:00:15.595Z,32.13
2023-02-17T02:05:31.208Z,28.43
2023-02-17T02:07:57.928Z,30.07
2023-02-17T02:10:24.710Z,32.20
2023-02-17T02:12:51.300Z,28.60
2023-02-17T02:15:22.560Z,32.20
2023-02-17T02:18:15.170Z,33.73
2023-02-17T02:21:34.668Z,33.37
2023-02-17T02:24:28.039Z,34.83
2023-02-17T02:27:07.839Z,35.33
2023-02-17T02:29:57.144Z,31.67
2023-02-17T02:32:49.374Z,34.43
2023-02-17T02:35:36.456Z,33.20
2023-02-17T02:38:16.386Z,34.77
2023-02-17T02:40:52.206Z,36.50
2023-02-17T02:43:19.060Z,33.37
2023-02-17T02:45:45.651Z,37.93
2023-02-17T02:48:12.277Z,37.00
2023-02-17T02:51:05.649Z,36.57
2023-02-17T02:53:50.437Z,37.53
2023-02-17T02:56:48.961Z,37.60
2023-02-17T02:59:30.381Z,35.30
2023-02-17T03:02:11.173Z,38.83
2023-02-17T03:04:45.997Z,36.53
2023-02-17T03:07:21.761Z,41.13
2023-02-17T03:09:57.811Z,35.90
2023-02-17T03:12:25.365Z,37.33
2023-02-17T03:14:57.039Z,37.60
2023-02-17T03:17:23.628Z,38.63
2023-02-17T03:19:50.523Z,39.70
2023-02-17T03:22:21.794Z,39.23
2023-02-17T03:24:48.438Z,37.63
2023-02-17T03:27:15.173Z,40.27
2023-02-17T03:29:42.802Z,39.77
2023-02-17T03:32:09.940Z,36.77
2023-02-17T03:34:36.843Z,42.23
2023-02-17T03:37:03.760Z,40.30
2023-02-17T03:39:31.532Z,45.07
2023-02-17T03:41:58.148Z,39.17
2023-02-17T03:44:24.813Z,38.90
2023-02-17T03:46:51.357Z,39.53
2023-02-17T03:49:17.933Z,44.07
2023-02-17T03:51:44.502Z,41.70
2023-02-17T03:54:11.081Z,42.67
2023-02-17T03:56:37.746Z,41.57
2023-02-17T03:59:04.781Z,43.80
2023-02-17T04:01:31.417Z,39.40
2023-02-17T04:03:58.039Z,37.83
2023-02-17T04:06:24.779Z,38.07
2023-02-17T04:08:51.425Z,40.20
2023-02-17T04:11:18.043Z,38.13
2023-02-17T04:13:44.804Z,40.30
2023-02-17T04:16:11.739Z,38.50
2023-02-17T04:18:38.905Z,41.00
2023-02-17T04:21:06.377Z,39.10
2023-02-17T04:23:35.670Z,39.43
2023-02-17T04:26:04.136Z,41.23
2023-02-17T04:28:31.139Z,37.63
2023-02-17T04:30:59.473Z,36.77
2023-02-17T04:33:26.751Z,39.43
2023-02-17T04:35:59.377Z,39.43
2023-02-17T04:38:30.824Z,38.47
2023-02-17T04:40:58.523Z,36.40
2023-02-17T04:43:26.489Z,38.20
2023-02-17T04:45:53.968Z,35.60
2023-02-17T04:48:20.700Z,34.03
2023-02-17T04:50:47.276Z,36.13
2023-02-17T04:53:14.087Z,37.43
2023-02-17T04:55:41.486Z,32.00
2023-02-17T04:58:09.367Z,32.13
2023-02-17T05:00:36.687Z,34.67
2023-02-17T05:03:03.430Z,33.03
2023-02-17T05:05:30.047Z,32.23
2023-02-17T05:07:56.690Z,32.37
2023-02-17T05:10:24.133Z,34.07
2023-02-17T05:12:50.778Z,38.87
2023-02-17T05:15:17.444Z,29.47
2023-02-17T05:17:44.143Z,36.17
2023-02-17T05:20:11.527Z,33.43
2023-02-17T05:22:38.174Z,34.20
2023-02-17T05:25:05.388Z,35.20
2023-02-17T05:27:32.987Z,34.97
2023-02-17T05:29:59.593Z,36.80
2023-02-17T05:32:26.534Z,34.10
2023-02-17T05:34:53.157Z,35.83
2023-02-17T05:37:19.787Z,35.33
2023-02-17T05:39:46.364Z,35.40
2023-02-17T05:42:13.087Z,36.57
2023-02-17T05:44:39.733Z,34.20
2023-02-17T05:47:06.430Z,37.50
2023-02-17T05:49:33.057Z,38.70
2023-02-17T05:51:59.725Z,36.17
2023-02-17T05:54:26.340Z,40.50
2023-02-17T05:56:52.934Z,38.60
2023-02-17T05:59:19.831Z,35.67
2023-02-17T06:01:46.583Z,37.10
2023-02-17T06:04:13.216Z,40.70
2023-02-17T06:06:39.781Z,40.83
2023-02-17T06:09:06.406Z,36.37
2023-02-17T06:11:33.661Z,38.10
2023-02-17T06:14:00.506Z,39.40
2023-02-17T06:16:27.327Z,40.43
2023-02-17T06:18:53.997Z,37.13
2023-02-17T06:21:20.634Z,34.97
2023-02-17T06:23:47.469Z,35.30
2023-02-17T06:26:14.650Z,35.63
2023-02-17T06:28:41.277Z,34.73
2023-02-17T06:31:07.894Z,33.23
2023-02-17T06:33:34.518Z,35.37
2023-02-17T06:36:01.156Z,33.43
2023-02-17T06:38:27.842Z,28.40
2023-02-17T06:40:54.792Z,32.20
2023-02-17T06:43:21.584Z,33.00
2023-02-17T06:45:48.415Z,30.83
2023-02-17T06:48:15.152Z,30.80
2023-02-17T06:50:41.758Z,30.00
2023-02-17T06:53:08.441Z,31.53
2023-02-17T06:55:37.123Z,31.47
2023-02-17T06:58:04.012Z,29.30
2023-02-17T07:00:30.790Z,30.43
2023-02-17T07:02:57.615Z,29.43
2023-02-17T07:05:24.264Z,32.37
2023-02-17T07:07:53.172Z,28.63
2023-02-17T07:10:20.254Z,26.97
2023-02-17T07:12:46.853Z,27.73
2023-02-17T07:15:14.930Z,27.90
2023-02-17T07:17:41.516Z,31.03
2023-02-17T07:20:09.334Z,27.47
2023-02-17T07:22:35.975Z,25.73
2023-02-17T07:25:02.933Z,29.60
2023-02-17T07:27:29.528Z,28.40
2023-02-17T07:29:56.332Z,26.30
2023-02-17T07:32:24.491Z,24.97
2023-02-17T07:34:51.034Z,25.47
2023-02-17T07:37:17.615Z,26.00
2023-02-17T07:39:44.227Z,23.10
2023-02-17T07:42:11.445Z,24.70
2023-02-17T07:44:38.003Z,24.47
2023-02-17T07:47:04.771Z,23.37
2023-02-17T07:49:31.454Z,22.27
2023-02-17T07:51:57.988Z,22.63
2023-02-17T07:54:24.603Z,19.73
2023-02-17T07:56:51.174Z,20.83
2023-02-17T07:59:17.757Z,23.43
2023-02-17T08:01:44.476Z,20.40
2023-02-17T08:04:11.111Z,19.97
2023-02-17T08:06:39.940Z,25.30
2023-02-17T08:09:25.705Z,19.27
2023-02-17T08:12:11.097Z,20.40
2023-02-17T08:14:38.585Z,17.17
2023-02-17T08:17:05.960Z,20.13
2023-02-17T08:19:46.970Z,19.57
2023-02-17T08:22:15.262Z,17.30
2023-02-17T08:24:41.845Z,16.47
2023-02-17T08:27:08.817Z,20.47
2023-02-17T08:29:35.478Z,18.63
2023-02-17T08:32:02.237Z,21.23
2023-02-17T08:34:33.502Z,19.67
2023-02-17T08:37:04.704Z,19.70
2023-02-17T08:39:32.277Z,16.80
2023-02-17T08:41:58.880Z,17.43
2023-02-17T08:44:25.586Z,17.97
2023-02-17T08:46:52.695Z,18.47
2023-02-17T08:49:24.897Z,17.60
2023-02-17T08:51:52.127Z,18.03
2023-02-17T08:54:18.901Z,17.53
2023-02-17T08:56:45.680Z,17.27
2023-02-17T08:59:12.944Z,21.07
2023-02-17T09:01:40.324Z,17.43
2023-02-17T09:04:09.213Z,22.77
2023-02-17T09:06:48.801Z,15.60
2023-02-17T09:09:17.635Z,15.97
2023-02-17T09:11:44.764Z,18.27
2023-02-17T09:14:11.364Z,17.60
2023-02-17T09:16:40.338Z,16.60
2023-02-17T09:19:07.920Z,15.77
2023-02-17T09:21:34.532Z,17.97
2023-02-17T09:24:01.122Z,18.23
2023-02-17T09:26:27.749Z,15.67
2023-02-17T09:28:54.354Z,22.37
2023-02-17T09:31:23.947Z,21.70
2023-02-17T09:33:51.207Z,18.70
2023-02-17T09:36:21.437Z,17.30
2023-02-17T09:38:48.866Z,18.20
2023-02-17T09:41:27.799Z,19.33
2023-02-17T09:43:55.712Z,18.23
2023-02-17T09:46:59.448Z,19.87
2023-02-17T09:49:35.005Z,18.47
2023-02-17T09:52:31.577Z,20.20
2023-02-17T09:55:11.115Z,21.87
2023-02-17T09:57:54.101Z,18.23
2023-02-17T10:00:29.684Z,18.43
2023-02-17T10:03:20.352Z,20.37
2023-02-17T10:06:05.923Z,18.43
2023-02-17T10:08:38.439Z,20.13
2023-02-17T10:11:17.094Z,21.43
2023-02-17T10:13:45.204Z,21.17
2023-02-17T10:16:22.854Z,18.70
2023-02-17T10:18:56.987Z,19.73
2023-02-17T10:21:29.334Z,20.47
2023-02-17T10:23:55.890Z,20.63
2023-02-17T10:26:49.121Z,24.17
2023-02-17T10:29:32.818Z,21.43
2023-02-17T10:32:23.323Z,20.13
2023-02-17T10:35:31.626Z,20.70
2023-02-17T10:38:13.958Z,18.47
2023-02-17T10:40:41.348Z,22.40
2023-02-17T10:43:10.151Z,21.90
2023-02-17T10:45:50.090Z,20.83
2023-02-17T10:48:38.512Z,23.10
2023-02-17T10:51:05.309Z,21.07
2023-02-17T10:53:39.173Z,21.83
2023-02-17T10:56:17.704Z,19.43
2023-02-17T10:58:53.180Z,21.87
2023-02-17T11:01:20.383Z,20.60
2023-02-17T11:04:11.588Z,20.73
2023-02-17T11:06:46.711Z,19.57
2023-02-17T11:09:19.167Z,20.60
2023-02-17T11:12:01.099Z,18.53
2023-02-17T11:14:33.852Z,20.73
2023-02-17T11:17:14.080Z,17.63
2023-02-17T11:19:40.916Z,19.00
2023-02-17T11:22:30.403Z,18.83
2023-02-17T11:25:03.706Z,20.77
2023-02-17T11:27:30.346Z,18.83
2023-02-17T11:30:30.032Z,18.87
2023-02-17T11:32:57.298Z,17.23
2023-02-17T11:35:30.150Z,17.77
2023-02-17T11:38:10.968Z,18.27
2023-02-17T11:40:37.686Z,19.00
2023-02-17T11:43:05.921Z,18.67
2023-02-17T11:45:47.873Z,16.90
2023-02-17T11:48:46.202Z,18.73
2023-02-17T11:51:50.877Z,15.27
2023-02-17T11:54:50.253Z,18.67
2023-02-17T11:57:45.546Z,15.70
2023-02-17T12:00:19.867Z,19.23
2023-02-17T12:03:11.802Z,18.27
2023-02-17T12:05:44.645Z,14.43
2023-02-17T12:08:38.421Z,18.27
2023-02-17T12:11:43.070Z,15.00
2023-02-17T12:14:55.179Z,14.70
2023-02-17T12:17:50.049Z,13.20
2023-02-17T12:20:45.716Z,13.97
2023-02-17T12:23:21.556Z,15.57
2023-02-17T12:26:00.069Z,14.77
2023-02-17T12:28:42.065Z,15.17
2023-02-17T12:31:25.954Z,13.17
2023-02-17T12:34:16.181Z,12.67
2023-02-17T12:36:44.498Z,15.00
2023-02-17T12:39:11.133Z,11.27
2023-02-17T12:41:43.290Z,13.67
2023-02-17T12:44:18.371Z,10.57
2023-02-17T12:46:48.878Z,13.97
2023-02-17T12:49:34.343Z,10.53
2023-02-17T12:52:18.253Z,12.20
2023-02-17T12:55:20.883Z,11.30
2023-02-17T12:58:11.822Z,13.00
2023-02-17T13:00:44.074Z,9.60
2023-02-17T13:03:11.421Z,11.67
2023-02-17T13:06:00.289Z,9.83
2023-02-17T13:08:54.695Z,8.27
2023-02-17T13:11:33.591Z,11.60
2023-02-17T13:14:26.803Z,9.67
2023-02-17T13:16:54.460Z,10.33
2023-02-17T13:19:29.962Z,8.20
2023-02-17T13:22:00.111Z,8.23
2023-02-17T13:24:36.217Z,7.93
2023-02-17T13:27:21.011Z,9.00
2023-02-17T13:30:11.174Z,7.73
2023-02-17T13:32:39.278Z,8.17
2023-02-17T13:35:15.949Z,7.50
2023-02-17T13:37:46.517Z,8.30
2023-02-17T13:40:19.618Z,7.20
2023-02-17T13:42:54.361Z,7.17
2023-02-17T13:45:29.427Z,8.27
2023-02-17T13:47:58.768Z,6.70
2023-02-17T13:50:53.092Z,7.10
2023-02-17T13:53:31.989Z,7.47
2023-02-17T13:56:04.913Z,8.80
2023-02-17T13:58:40.187Z,7.90
2023-02-17T14:01:14.492Z,9.10
2023-02-17T14:03:42.981Z,6.03
2023-02-17T14:06:18.612Z,6.77
2023-02-17T14:08:45.297Z,7.07
2023-02-17T14:11:19.347Z,6.97
2023-02-17T14:13:48.411Z,8.10
2023-02-17T14:16:37.752Z,7.90
2023-02-17T14:19:16.311Z,7.90
2023-02-17T14:21:56.726Z,7.07
2023-02-17T14:24:26.136Z,7.33
2023-02-17T14:27:00.641Z,7.00
2023-02-17T14:29:41.762Z,9.17
2023-02-17T14:32:26.456Z,7.70
2023-02-17T14:34:53.476Z,7.53
2023-02-17T14:37:24.931Z,7.60
2023-02-17T14:39:51.755Z,7.50
2023-02-17T14:42:18.826Z,7.30
2023-02-17T14:44:45.513Z,7.20
2023-02-17T14:47:12.426Z,8.27
2023-02-17T14:49:39.494Z,8.30
2023-02-17T14:52:20.643Z,10.17
2023-02-17T14:54:47.651Z,9.23
2023-02-17T14:57:20.239Z,10.47
2023-02-17T14:59:48.087Z,10.67
2023-02-17T15:02:17.006Z,11.47
2023-02-17T15:04:44.524Z,12.00
2023-02-17T15:07:17.407Z,12.10
2023-02-17T15:09:45.799Z,11.23
2023-02-17T15:12:16.511Z,11.57
2023-02-17T15:14:43.819Z,13.07
2023-02-17T15:17:11.386Z,12.27
2023-02-17T15:19:38.232Z,13.07
2023-02-17T15:22:06.390Z,13.27
2023-02-17T15:24:35.199Z,11.60
2023-02-17T15:27:04.084Z,13.40
2023-02-17T15:29:31.634Z,15.53
2023-02-17T15:32:04.820Z,14.50
2023-02-17T15:34:36.678Z,16.13
2023-02-17T15:37:03.839Z,14.00
2023-02-17T15:39:34.504Z,15.27
2023-02-17T15:42:06.843Z,15.17
2023-02-17T15:44:47.526Z,14.00
2023-02-17T15:47:18.520Z,15.80
2023-02-17T15:49:46.020Z,15.20
2023-02-17T15:52:14.342Z,12.83
2023-02-17T15:54:43.030Z,14.00
2023-02-17T15:57:23.642Z,15.83
2023-02-17T15:59:51.508Z,15.43
2023-02-17T16:02:25.414Z,14.60
2023-02-17T16:04:53.082Z,13.87
2023-02-17T16:07:24.107Z,12.27
2023-02-17T16:10:02.059Z,11.83
2023-02-17T16:12:53.148Z,12.60
2023-02-17T16:15:22.553Z,13.17
2023-02-17T16:17:50.686Z,14.10
2023-02-17T16:20:25.689Z,12.57
2023-02-17T16:22:53.587Z,11.13
2023-02-17T16:25:22.110Z,11.73
2023-02-17T16:27:51.855Z,11.00
2023-02-17T16:30:35.916Z,10.93
2023-02-17T16:33:03.944Z,11.30
2023-02-17T16:35:36.112Z,10.63
2023-02-17T16:38:22.828Z,10.17
2023-02-17T16:40:52.370Z,10.73
2023-02-17T16:43:22.249Z,8.40
2023-02-17T16:46:16.445Z,8.93
2023-02-17T16:48:46.429Z,9.63
2023-02-17T16:51:17.672Z,9.57
2023-02-17T16:53:45.060Z,9.10
2023-02-17T16:56:44.661Z,7.63
2023-02-17T16:59:22.467Z,9.33
2023-02-17T17:01:56.268Z,7.20
2023-02-17T17:04:32.614Z,7.63
2023-02-17T17:07:00.168Z,7.03
2023-02-17T17:09:28.234Z,7.07
2023-02-17T17:11:55.836Z,7.57
2023-02-17T17:14:29.252Z,7.10
2023-02-17T17:17:01.185Z,6.53
2023-02-17T17:19:28.651Z,7.73
2023-02-17T17:21:56.139Z,8.47
2023-02-17T17:24:23.611Z,5.13
2023-02-17T17:26:51.730Z,5.80
2023-02-17T17:29:22.882Z,5.97
2023-02-17T17:31:49.553Z,5.40
2023-02-17T17:34:16.185Z,6.97
2023-02-17T17:36:47.607Z,5.47
2023-02-17T17:39:21.174Z,6.33
2023-02-17T17:41:48.347Z,6.17
2023-02-17T17:44:15.056Z,6.37
2023-02-17T17:46:42.174Z,6.73
2023-02-17T17:49:10.397Z,5.00
2023-02-17T17:51:38.628Z,6.37
2023-02-17T17:54:06.357Z,4.73
2023-02-17T17:56:42.999Z,5.97
2023-02-17T17:59:11.381Z,4.60
2023-02-17T18:01:38.405Z,5.83
2023-02-17T18:04:07.956Z,4.53
2023-02-17T18:06:40.577Z,7.13
2023-02-17T18:09:09.089Z,4.37
2023-02-17T18:11:39.180Z,4.27
2023-02-17T18:14:11.480Z,4.03
2023-02-17T18:16:39.591Z,4.00
2023-02-17T18:19:08.252Z,8.43
2023-02-17T18:21:35.740Z,2.83
2023-02-17T18:24:07.253Z,3.77
2023-02-17T18:26:33.968Z,4.40
2023-02-17T18:29:01.193Z,4.13
2023-02-17T18:31:29.690Z,2.70
2023-02-17T18:33:56.544Z,5.33
2023-02-17T18:36:25.868Z,3.47
2023-02-17T18:38:53.121Z,4.03
2023-02-17T18:41:23.962Z,4.03
2023-02-17T18:43:51.147Z,5.30
2023-02-17T18:46:18.135Z,6.40
2023-02-17T18:48:44.776Z,11.07
2023-02-17T18:51:14.274Z,4.53
2023-02-17T18:53:41.821Z,6.17
2023-02-17T18:56:13.672Z,6.13
2023-02-17T18:58:40.703Z,5.77
2023-02-17T19:01:13.623Z,3.60
2023-02-17T19:03:40.222Z,7.03
2023-02-17T19:06:15.873Z,13.83
2023-02-17T19:08:43.943Z,9.30
2023-02-17T19:11:10.590Z,4.50
2023-02-17T19:13:37.615Z,5.23
2023-02-17T19:16:10.493Z,4.63
2023-02-17T19:18:38.497Z,4.77
2023-02-17T19:21:05.911Z,3.47
2023-02-17T19:23:32.920Z,4.87
2023-02-17T19:26:02.230Z,3.03
2023-02-17T19:28:28.840Z,5.47
2023-02-17T19:30:57.106Z,3.30
2023-02-17T19:33:24.941Z,5.07
2023-02-17T19:35:52.099Z,3.80
2023-02-17T19:38:18.694Z,5.60
2023-02-17T19:40:45.337Z,5.47
2023-02-17T19:43:12.230Z,5.20
2023-02-17T19:45:39.050Z,5.93
2023-02-17T19:48:05.773Z,3.77
2023-02-17T19:50:32.501Z,5.27
2023-02-17T19:52:59.063Z,5.93
2023-02-17T19:55:25.686Z,4.83
2023-02-17T19:57:53.028Z,5.60
2023-02-17T20:00:19.734Z,8.70
2023-02-17T20:02:46.417Z,5.97
2023-02-17T20:05:13.024Z,8.63
2023-02-17T20:07:40.138Z,7.60
2023-02-17T20:10:10.837Z,7.70
2023-02-17T20:12:37.994Z,9.60
2023-02-17T20:15:05.478Z,9.13
2023-02-17T20:17:32.173Z,8.17
2023-02-17T20:19:59.688Z,6.87
2023-02-17T20:22:26.421Z,9.77
2023-02-17T20:24:53.154Z,10.47
2023-02-17T20:27:19.815Z,8.17
2023-02-17T20:29:46.519Z,7.43
2023-02-17T20:32:13.389Z,7.80
2023-02-17T20:34:40.497Z,9.13
2023-02-17T20:37:08.049Z,10.93
2023-02-17T20:39:36.101Z,6.97
2023-02-17T20:42:04.096Z,9.20
2023-02-17T20:44:30.727Z,7.30
2023-02-17T20:46:57.582Z,9.90
2023-02-17T20:49:25.373Z,8.70
2023-02-17T20:51:52.352Z,9.50
2023-02-17T20:54:18.942Z,6.90
2023-02-17T20:56:47.403Z,9.30
2023-02-17T20:59:14.919Z,9.17
2023-02-17T21:01:42.566Z,9.10
2023-02-17T21:04:10.421Z,10.03
2023-02-17T21:06:43.081Z,11.13
2023-02-17T21:09:15.694Z,10.57
2023-02-17T21:11:42.940Z,8.73
2023-02-17T21:14:09.603Z,12.13
2023-02-17T21:16:37.032Z,9.63
2023-02-17T21:19:03.892Z,8.97
2023-02-17T21:21:31.380Z,8.87
2023-02-17T21:23:58.682Z,10.50
2023-02-17T21:26:26.447Z,10.40
2023-02-17T21:28:54.197Z,10.80
2023-02-17T21:31:21.559Z,8.67
2023-02-17T21:33:48.567Z,11.90
2023-02-17T21:36:17.232Z,8.27
2023-02-17T21:38:44.185Z,9.17
2023-02-17T21:41:16.934Z,13.03
2023-02-17T21:44:02.496Z,9.13
2023-02-17T21:46:30.226Z,9.90
2023-02-17T21:48:59.086Z,8.70
2023-02-17T21:51:26.605Z,8.83
2023-02-17T21:53:53.996Z,9.47
2023-02-17T21:56:22.310Z,12.23
2023-02-17T21:58:50.849Z,7.80
2023-02-17T22:01:18.331Z,11.60
2023-02-17T22:03:45.049Z,9.57
2023-02-17T22:06:18.163Z,11.87
2023-02-17T22:08:45.822Z,12.83
2023-02-17T22:11:21.972Z,9.77
2023-02-17T22:13:48.910Z,9.57
2023-02-17T22:16:15.954Z,8.67
2023-02-17T22:18:42.800Z,11.90
2023-02-17T22:21:11.956Z,11.47
2023-02-17T22:23:39.511Z,10.47
2023-02-17T22:26:12.018Z,10.73
2023-02-17T22:28:39.073Z,9.17
2023-02-17T22:31:06.875Z,11.50
2023-02-17T22:33:34.472Z,9.20
2023-02-17T22:36:10.237Z,12.20
2023-02-17T22:38:37.104Z,13.97
2023-02-17T22:41:08.230Z,7.73
2023-02-17T22:43:36.557Z,13.23
2023-02-17T22:46:04.185Z,14.77
2023-02-17T22:48:32.815Z,14.20
2023-02-17T22:51:05.133Z,13.27
2023-02-17T22:53:31.706Z,8.73
2023-02-17T22:55:58.781Z,7.20
2023-02-17T22:58:27.205Z,14.10
2023-02-17T23:01:23.934Z,12.47
2023-02-17T23:03:54.368Z,12.03
2023-02-17T23:06:26.257Z,13.60
2023-02-17T23:08:53.996Z,14.37
2023-02-17T23:11:43.078Z,10.80
2023-02-17T23:14:11.420Z,9.47
2023-02-17T23:16:38.367Z,11.97
2023-02-17T23:19:10.558Z,9.10
2023-02-17T23:21:46.966Z,11.13
2023-02-17T23:24:16.576Z,13.57
2023-02-17T23:26:43.615Z,15.83
2023-02-17T23:29:11.214Z,10.80
2023-02-17T23:31:38.562Z,9.93
2023-02-17T23:34:06.317Z,11.63
2023-02-17T23:36:33.287Z,12.20
2023-02-17T23:39:00.718Z,10.70
2023-02-17T23:41:27.796Z,11.47
2023-02-17T23:43:54.340Z,16.73
2023-02-17T23:46:21.088Z,15.53
2023-02-17T23:48:47.850Z,13.57
2023-02-17T23:51:18.686Z,13.37
2023-02-17T23:53:45.916Z,14.70
2023-02-17T23:56:25.395Z,16.23
2023-02-17T23:58:52.016Z,14.90
